Terminal Aerodrome Forecast
Issued by NWS Albany, NY

Home | Current Version | Previous Version | Text Only | Print | Product List | Glossary On
Versions: 1 2 3 4 5 6 7 8 9 10 11 12 13 14 15
000
FTUS41 KALY 010800 AAA
TAFPOU
TAF AMD
KPOU 010810Z 0108/0206 00000KT 4SM BR SCT003
      TEMPO 0108/0111 1 1/2SM BR BKN003
     FM011200 VRB03KT P6SM SCT010
     FM011500 20005KT P6SM SCT035
     FM011800 18006KT P6SM BKN040 BKN250
     FM020000 18005KT P6SM SCT050 SCT120 BKN250
     FM020400 VRB03KT P6SM BKN120 BKN250=

USA.gov is the U.S. government's official web portal to all federal, state and local government web resources and services.